createdAt,value
2023-04-26T00:00:09.505Z,10.54
2023-04-26T00:05:35.275Z,10.55
2023-04-26T00:10:40.905Z,10.53
2023-04-26T00:15:44.205Z,10.54
2023-04-26T00:20:48.038Z,10.54
2023-04-26T00:25:51.201Z,10.53
2023-04-26T00:30:54.421Z,10.51
2023-04-26T00:35:57.590Z,10.53
2023-04-26T00:41:01.074Z,10.54
2023-04-26T00:46:06.070Z,10.51
2023-04-26T00:51:09.917Z,10.46
2023-04-26T00:56:13.993Z,10.46
2023-04-26T01:01:17.281Z,10.48
2023-04-26T01:06:22.781Z,10.44
2023-04-26T01:11:26.370Z,10.38
2023-04-26T01:16:31.269Z,10.30
2023-04-26T01:21:34.991Z,10.29
2023-04-26T01:26:45.801Z,10.19
2023-04-26T01:31:51.157Z,10.12
2023-04-26T01:36:54.519Z,9.99
2023-04-26T01:41:58.854Z,9.89
2023-04-26T01:47:02.142Z,9.87
2023-04-26T01:52:05.478Z,9.85
2023-04-26T01:57:08.852Z,9.84
2023-04-26T02:02:12.229Z,9.77
2023-04-26T02:07:16.027Z,9.71
2023-04-26T02:12:22.363Z,9.62
2023-04-26T02:17:26.804Z,9.55
2023-04-26T02:22:30.409Z,9.51
2023-04-26T02:27:33.927Z,9.43
2023-04-26T02:32:37.199Z,9.37
2023-04-26T02:37:40.891Z,9.35
2023-04-26T02:42:44.553Z,9.32
2023-04-26T02:47:48.244Z,9.24
2023-04-26T02:52:52.083Z,9.18
2023-04-26T02:57:56.102Z,9.13
2023-04-26T03:03:03.222Z,9.07
2023-04-26T03:08:07.361Z,9.03
2023-04-26T03:13:10.793Z,8.97
2023-04-26T03:18:14.736Z,8.93
2023-04-26T03:23:18.684Z,8.86
2023-04-26T03:28:22.414Z,8.82
2023-04-26T03:33:25.848Z,8.81
2023-04-26T03:38:29.448Z,8.73
2023-04-26T03:43:33.290Z,8.69
2023-04-26T03:48:36.833Z,8.67
2023-04-26T03:53:40.117Z,8.62
2023-04-26T03:58:45.134Z,8.59
2023-04-26T04:03:48.620Z,8.56
2023-04-26T04:08:52.124Z,8.57
2023-04-26T04:13:56.320Z,8.53
2023-04-26T04:18:59.742Z,8.45
2023-04-26T04:24:04.292Z,8.40
2023-04-26T04:29:10.785Z,8.39
2023-04-26T04:34:14.856Z,8.36
2023-04-26T04:39:18.796Z,8.35
2023-04-26T04:44:24.325Z,8.34
2023-04-26T04:49:29.295Z,8.34
2023-04-26T04:54:33.129Z,8.31
2023-04-26T04:59:37.292Z,8.25
2023-04-26T05:04:41.275Z,8.23
2023-04-26T05:09:45.897Z,8.16
2023-04-26T05:14:50.113Z,8.13
2023-04-26T05:19:53.631Z,8.15
2023-04-26T05:24:57.170Z,8.18
2023-04-26T05:30:05.198Z,8.23
2023-04-26T05:35:26.644Z,8.21
2023-04-26T05:40:30.029Z,8.20
2023-04-26T05:45:33.759Z,8.22
2023-04-26T05:50:39.892Z,8.25
2023-04-26T05:55:45.858Z,8.29
2023-04-26T06:00:49.289Z,8.37
2023-04-26T06:05:54.430Z,8.55
2023-04-26T06:10:58.636Z,8.72
2023-04-26T06:16:03.702Z,8.86
2023-04-26T06:21:07.300Z,8.94
2023-04-26T06:26:10.752Z,9.07
2023-04-26T06:31:15.438Z,9.18
2023-04-26T06:36:19.110Z,9.23
2023-04-26T06:41:22.773Z,9.33
2023-04-26T06:46:26.205Z,9.42
2023-04-26T06:51:31.606Z,9.53
2023-04-26T06:56:34.970Z,9.66
2023-04-26T07:01:39.590Z,9.71
2023-04-26T07:06:43.085Z,9.74
2023-04-26T07:11:47.990Z,9.80
2023-04-26T07:16:51.502Z,9.84
2023-04-26T07:21:54.738Z,9.92
2023-04-26T07:26:58.123Z,10.10
2023-04-26T07:32:01.494Z,10.15
2023-04-26T07:37:05.341Z,10.22
2023-04-26T07:42:08.593Z,10.22
2023-04-26T07:47:13.824Z,10.18
2023-04-26T07:52:17.579Z,10.18
2023-04-26T07:57:20.981Z,10.26
2023-04-26T08:02:36.745Z,10.45
2023-04-26T08:07:47.337Z,10.53
2023-04-26T08:12:50.728Z,10.61
2023-04-26T08:17:54.058Z,10.62
2023-04-26T08:22:57.744Z,10.68
2023-04-26T08:28:02.328Z,10.76
2023-04-26T08:33:05.844Z,10.82
2023-04-26T08:38:09.215Z,10.82
2023-04-26T08:43:17.330Z,10.90
2023-04-26T08:48:22.033Z,10.92
2023-04-26T08:53:25.666Z,10.94
2023-04-26T08:58:29.962Z,10.97
2023-04-26T09:03:33.604Z,11.04
2023-04-26T09:08:41.569Z,11.11
2023-04-26T09:13:44.945Z,11.20
2023-04-26T09:18:55.048Z,11.13
2023-04-26T09:24:06.914Z,11.16
2023-04-26T09:29:17.946Z,11.18
2023-04-26T09:34:21.515Z,10.95
2023-04-26T09:39:37.505Z,10.85
2023-04-26T09:44:41.042Z,11.04
2023-04-26T09:49:50.672Z,11.02
2023-04-26T09:54:54.978Z,10.87
2023-04-26T10:00:00.235Z,10.75
2023-04-26T10:05:04.892Z,10.81
2023-04-26T10:10:09.357Z,10.81
2023-04-26T10:15:13.104Z,10.82
2023-04-26T10:20:20.345Z,10.91
2023-04-26T10:25:36.907Z,11.08
2023-04-26T10:31:00.179Z,11.51
2023-04-26T10:36:14.261Z,11.95
2023-04-26T10:41:38.821Z,11.94
2023-04-26T10:46:43.453Z,11.84
2023-04-26T10:52:13.252Z,12.06
2023-04-26T10:57:17.359Z,12.09
2023-04-26T11:02:47.628Z,12.15
2023-04-26T11:08:25.339Z,12.47
2023-04-26T11:13:44.648Z,13.03
2023-04-26T11:18:49.072Z,13.20
2023-04-26T11:23:55.594Z,13.07
2023-04-26T11:28:58.985Z,13.07
2023-04-26T11:34:05.562Z,12.98
2023-04-26T11:39:09.101Z,12.66
2023-04-26T11:44:13.092Z,12.59
2023-04-26T11:49:17.751Z,12.84
2023-04-26T11:54:31.711Z,13.41
2023-04-26T11:59:36.083Z,13.80
2023-04-26T12:04:41.652Z,13.35
2023-04-26T12:09:45.397Z,12.83
2023-04-26T12:14:48.948Z,12.66
2023-04-26T12:19:52.561Z,13.12
2023-04-26T12:25:07.900Z,13.70
2023-04-26T12:30:11.837Z,14.00
2023-04-26T12:35:15.724Z,13.63
2023-04-26T12:40:20.430Z,13.27
2023-04-26T12:50:48.201Z,13.05
2023-04-26T12:55:51.693Z,13.65
2023-04-26T13:00:55.186Z,14.07
2023-04-26T13:05:58.720Z,13.88
2023-04-26T13:11:02.459Z,13.70
2023-04-26T13:16:06.423Z,13.83
2023-04-26T13:21:09.748Z,13.76
2023-04-26T13:26:15.324Z,13.80
2023-04-26T13:31:19.530Z,13.75
2023-04-26T13:36:23.188Z,13.82
2023-04-26T13:41:26.973Z,14.20
2023-04-26T13:46:30.859Z,14.27
2023-04-26T13:51:35.189Z,14.32
2023-04-26T13:56:38.717Z,14.68
2023-04-26T14:01:42.530Z,15.08
2023-04-26T14:06:46.073Z,14.75
2023-04-26T14:11:57.186Z,14.37
2023-04-26T14:17:04.356Z,13.96
2023-04-26T14:22:10.146Z,13.73
2023-04-26T14:27:13.498Z,13.69
2023-04-26T14:32:17.235Z,13.56
2023-04-26T14:37:23.055Z,13.49
2023-04-26T14:42:26.302Z,13.51
2023-04-26T14:47:29.752Z,13.43
2023-04-26T14:52:36.337Z,13.26
2023-04-26T14:57:41.472Z,13.07
2023-04-26T15:02:45.620Z,12.90
2023-04-26T15:07:48.918Z,12.83
2023-04-26T15:12:52.528Z,12.71
2023-04-26T15:18:02.230Z,12.56
2023-04-26T15:23:06.107Z,12.40
2023-04-26T15:28:11.056Z,12.38
2023-04-26T15:33:17.237Z,12.37
2023-04-26T15:38:21.508Z,12.24
2023-04-26T15:43:24.977Z,12.08
2023-04-26T15:48:28.210Z,11.86
2023-04-26T15:53:31.571Z,11.73
2023-04-26T15:58:39.329Z,11.59
2023-04-26T16:03:47.500Z,11.61
2023-04-26T16:08:51.394Z,12.03
2023-04-26T16:13:55.163Z,12.48
2023-04-26T16:18:59.017Z,13.01
2023-04-26T16:24:09.452Z,13.01
2023-04-26T16:29:13.658Z,12.73
2023-04-26T16:34:17.107Z,12.51
2023-04-26T16:39:20.572Z,12.32
2023-04-26T16:44:27.255Z,12.21
2023-04-26T16:49:30.812Z,12.06
2023-04-26T16:54:34.231Z,11.88
2023-04-26T16:59:37.500Z,11.69
2023-04-26T17:04:42.130Z,11.43
2023-04-26T17:09:45.970Z,11.11
2023-04-26T17:14:49.260Z,10.95
2023-04-26T17:19:52.529Z,10.86
2023-04-26T17:24:56.099Z,10.80
2023-04-26T17:29:59.483Z,10.74
2023-04-26T17:35:02.850Z,10.75
2023-04-26T17:40:08.170Z,10.72
2023-04-26T17:45:14.265Z,10.67
2023-04-26T17:50:33.920Z,10.62
2023-04-26T17:55:37.775Z,10.59
2023-04-26T18:00:41.687Z,10.49
2023-04-26T18:05:45.201Z,10.47
2023-04-26T18:10:48.647Z,10.44
2023-04-26T18:15:54.392Z,10.42
2023-04-26T18:20:57.840Z,10.38
2023-04-26T18:26:01.298Z,10.38
2023-04-26T18:31:05.083Z,10.38
2023-04-26T18:36:08.497Z,10.33
2023-04-26T18:41:12.114Z,10.23
2023-04-26T18:46:15.647Z,10.16
2023-04-26T18:51:18.975Z,10.08
2023-04-26T18:56:22.791Z,10.06
2023-04-26T19:01:26.406Z,10.25
2023-04-26T19:06:29.958Z,10.25
2023-04-26T19:11:33.241Z,10.21
2023-04-26T19:16:49.132Z,10.07
2023-04-26T19:21:52.496Z,9.99
2023-04-26T19:26:56.278Z,9.94
2023-04-26T19:32:00.386Z,9.89
2023-04-26T19:37:03.773Z,9.88
2023-04-26T19:42:07.439Z,10.02
2023-04-26T19:47:11.620Z,9.96
2023-04-26T19:52:15.275Z,9.84
2023-04-26T19:57:18.580Z,9.77
2023-04-26T20:02:22.412Z,9.74
2023-04-26T20:07:27.162Z,9.76
2023-04-26T20:12:30.553Z,9.74
2023-04-26T20:17:34.790Z,9.71
2023-04-26T20:22:39.664Z,9.67
2023-04-26T20:27:42.967Z,9.57
2023-04-26T20:32:46.230Z,9.45
2023-04-26T20:37:49.639Z,9.35
2023-04-26T20:42:53.318Z,9.28
2023-04-26T20:47:56.538Z,9.23
2023-04-26T20:53:00.182Z,9.18
2023-04-26T20:58:03.828Z,9.15
2023-04-26T21:03:07.392Z,9.09
2023-04-26T21:08:12.092Z,8.97
2023-04-26T21:13:15.684Z,8.95
2023-04-26T21:18:18.952Z,8.96
2023-04-26T21:23:22.125Z,8.96
2023-04-26T21:28:25.589Z,8.92
2023-04-26T21:33:29.197Z,8.86
2023-04-26T21:38:32.389Z,8.80
2023-04-26T21:43:35.721Z,8.71
2023-04-26T21:48:41.927Z,8.67
2023-04-26T21:53:45.156Z,8.61
2023-04-26T21:58:48.537Z,8.55
2023-04-26T22:03:52.012Z,8.56
2023-04-26T22:08:55.815Z,8.56
2023-04-26T22:13:59.560Z,8.50
2023-04-26T22:19:03.378Z,8.40
2023-04-26T22:24:07.241Z,8.35
2023-04-26T22:29:10.895Z,8.27
2023-04-26T22:34:14.542Z,8.21
2023-04-26T22:39:18.121Z,8.12
2023-04-26T22:44:22.113Z,8.09
2023-04-26T22:49:28.914Z,8.03
2023-04-26T22:54:32.229Z,7.99
2023-04-26T22:59:35.522Z,7.91
2023-04-26T23:04:39.013Z,7.88
2023-04-26T23:09:43.429Z,7.87
2023-04-26T23:14:50.999Z,7.84
2023-04-26T23:19:54.883Z,7.80
2023-04-26T23:24:58.626Z,7.76
2023-04-26T23:36:22.214Z,7.70
2023-04-26T23:41:25.870Z,7.68
2023-04-26T23:46:29.384Z,7.67
2023-04-26T23:51:33.027Z,7.67
2023-04-26T23:56:36.391Z,7.64
